createdAt,value
2022-12-15T00:00:14.854Z,85.47
2022-12-15T00:01:17.830Z,85.58
2022-12-15T00:02:17.918Z,85.36
2022-12-15T00:03:14.913Z,85.25
2022-12-15T00:04:14.765Z,85.47
2022-12-15T00:05:14.756Z,85.68
2022-12-15T00:06:14.849Z,85.68
2022-12-15T00:07:14.764Z,85.47
2022-12-15T00:08:14.762Z,85.89
2022-12-15T00:09:16.135Z,85.68
2022-12-15T00:10:14.713Z,85.79
2022-12-15T00:11:14.675Z,86.11
2022-12-15T00:12:14.675Z,86.11
2022-12-15T00:13:14.662Z,86.11
2022-12-15T00:14:14.665Z,86.32
2022-12-15T00:15:14.634Z,86.54
2022-12-15T00:16:14.679Z,86.68
2022-12-15T00:17:14.654Z,86.79
2022-12-15T00:18:14.605Z,87.00
2022-12-15T00:19:14.566Z,87.21
2022-12-15T00:20:14.564Z,87.21
2022-12-15T00:21:17.542Z,87.74
2022-12-15T00:22:17.578Z,87.43
2022-12-15T00:23:14.581Z,87.64
2022-12-15T00:24:14.505Z,87.64
2022-12-15T00:25:14.542Z,87.53
2022-12-15T00:26:14.509Z,87.43
2022-12-15T00:27:14.445Z,87.43
2022-12-15T00:28:14.434Z,87.32
2022-12-15T00:29:14.444Z,87.43
2022-12-15T00:30:14.429Z,87.43
2022-12-15T00:31:14.461Z,87.21
2022-12-15T00:32:14.408Z,87.10
2022-12-15T00:33:14.415Z,87.10
2022-12-15T00:34:14.406Z,86.90
2022-12-15T00:35:14.396Z,86.79
2022-12-15T00:36:14.414Z,86.36
2022-12-15T00:37:14.344Z,86.47
2022-12-15T00:38:14.346Z,86.11
2022-12-15T00:39:14.313Z,86.00
2022-12-15T00:40:14.327Z,86.00
2022-12-15T00:41:17.327Z,85.89
2022-12-15T00:42:17.293Z,85.58
2022-12-15T00:43:14.265Z,85.36
2022-12-15T00:44:18.958Z,85.36
2022-12-15T00:45:15.227Z,85.25
2022-12-15T00:46:14.255Z,85.15
2022-12-15T00:47:14.235Z,85.15
2022-12-15T00:48:14.176Z,85.25
2022-12-15T00:49:14.186Z,85.15
2022-12-15T00:50:14.176Z,85.04
2022-12-15T00:51:14.146Z,85.04
2022-12-15T00:52:14.146Z,84.83
2022-12-15T00:53:14.146Z,85.04
2022-12-15T00:54:18.054Z,84.90
2022-12-15T00:55:14.133Z,85.15
2022-12-15T00:56:14.097Z,85.04
2022-12-15T00:57:14.061Z,84.94
2022-12-15T00:58:14.080Z,85.04
2022-12-15T00:59:14.071Z,85.04
2022-12-15T01:00:14.059Z,85.36
2022-12-15T01:01:17.071Z,85.36
2022-12-15T01:02:17.131Z,85.36
2022-12-15T01:03:14.119Z,86.00
2022-12-15T01:04:14.088Z,85.68
2022-12-15T01:05:14.005Z,86.00
2022-12-15T01:06:13.957Z,86.43
2022-12-15T01:07:13.937Z,86.32
2022-12-15T01:08:13.948Z,86.25
2022-12-15T01:09:13.938Z,86.36
2022-12-15T01:10:13.935Z,86.47
2022-12-15T01:11:13.891Z,86.57
2022-12-15T01:12:13.891Z,86.90
2022-12-15T01:13:13.896Z,86.79
2022-12-15T01:14:13.898Z,86.90
2022-12-15T01:15:13.838Z,86.57
2022-12-15T01:16:13.845Z,86.79
2022-12-15T01:17:13.820Z,86.79
2022-12-15T01:18:13.878Z,86.79
2022-12-15T01:19:13.839Z,86.79
2022-12-15T01:20:13.760Z,86.90
2022-12-15T01:21:16.761Z,87.10
2022-12-15T01:22:16.752Z,87.00
2022-12-15T01:23:13.748Z,87.00
2022-12-15T01:24:13.717Z,87.00
2022-12-15T01:25:13.720Z,87.21
2022-12-15T01:26:13.724Z,87.32
2022-12-15T01:27:13.701Z,87.43
2022-12-15T01:28:13.689Z,87.53
2022-12-15T01:29:13.660Z,87.64
2022-12-15T01:30:13.662Z,87.74
2022-12-15T01:31:13.697Z,87.85
2022-12-15T01:32:13.597Z,87.74
2022-12-15T01:33:13.585Z,87.85
2022-12-15T01:34:13.579Z,88.07
2022-12-15T01:35:13.592Z,88.32
2022-12-15T01:36:13.647Z,88.32
2022-12-15T01:37:13.548Z,88.43
2022-12-15T01:38:13.545Z,88.32
2022-12-15T01:39:13.542Z,88.43
2022-12-15T01:40:13.498Z,88.53
2022-12-15T01:41:16.528Z,88.43
2022-12-15T01:42:16.510Z,88.32
2022-12-15T01:43:13.470Z,88.21
2022-12-15T01:44:13.475Z,88.10
2022-12-15T01:45:13.470Z,87.79
2022-12-15T01:46:13.497Z,87.64
2022-12-15T01:47:13.492Z,87.64
2022-12-15T01:48:13.436Z,87.43
2022-12-15T01:49:13.399Z,87.32
2022-12-15T01:50:13.389Z,87.43
2022-12-15T01:51:13.378Z,87.32
2022-12-15T01:52:13.388Z,87.32
2022-12-15T01:53:13.359Z,87.32
2022-12-15T01:54:13.309Z,87.46
2022-12-15T01:55:13.333Z,87.57
2022-12-15T01:56:13.311Z,87.68
2022-12-15T01:57:13.330Z,87.79
2022-12-15T01:58:13.290Z,87.57
2022-12-15T01:59:13.260Z,87.46
2022-12-15T02:00:13.274Z,87.46
2022-12-15T02:01:16.314Z,87.21
2022-12-15T02:02:16.401Z,86.90
2022-12-15T02:03:13.244Z,86.79
2022-12-15T02:04:13.195Z,86.68
2022-12-15T02:05:13.200Z,86.36
2022-12-15T02:06:13.172Z,86.11
2022-12-15T02:07:13.151Z,85.79
2022-12-15T02:08:13.130Z,85.89
2022-12-15T02:09:13.192Z,85.79
2022-12-15T02:10:13.151Z,85.89
2022-12-15T02:11:13.111Z,85.79
2022-12-15T02:12:13.142Z,85.79
2022-12-15T02:13:13.072Z,85.89
2022-12-15T02:14:13.087Z,86.11
2022-12-15T02:15:13.086Z,86.21
2022-12-15T02:16:13.096Z,86.43
2022-12-15T02:17:13.039Z,86.54
2022-12-15T02:18:13.019Z,87.10
2022-12-15T02:19:12.991Z,86.57
2022-12-15T02:20:13.001Z,86.90
2022-12-15T02:21:15.971Z,86.79
2022-12-15T02:22:15.978Z,87.00
2022-12-15T02:23:12.941Z,87.21
2022-12-15T02:24:12.958Z,87.10
2022-12-15T02:25:12.994Z,87.21
2022-12-15T02:26:12.910Z,87.00
2022-12-15T02:27:12.901Z,87.32
2022-12-15T02:28:12.893Z,87.43
2022-12-15T02:29:12.851Z,87.53
2022-12-15T02:30:12.842Z,87.85
2022-12-15T02:31:12.937Z,87.85
2022-12-15T02:32:12.852Z,87.25
2022-12-15T02:33:12.802Z,87.00
2022-12-15T02:34:12.812Z,87.00
2022-12-15T02:35:12.793Z,86.90
2022-12-15T02:36:12.764Z,86.68
2022-12-15T02:37:12.783Z,86.93
2022-12-15T02:38:12.742Z,87.15
2022-12-15T02:39:12.739Z,87.25
2022-12-15T02:40:12.715Z,87.36
2022-12-15T02:41:15.773Z,87.36
2022-12-15T02:42:15.743Z,87.68
2022-12-15T02:43:12.701Z,87.25
2022-12-15T02:44:12.691Z,87.15
2022-12-15T02:45:12.642Z,87.36
2022-12-15T02:46:12.721Z,87.46
2022-12-15T02:47:12.681Z,87.57
2022-12-15T02:48:12.616Z,87.57
2022-12-15T02:49:12.623Z,87.68
2022-12-15T02:50:12.585Z,87.57
2022-12-15T02:51:12.554Z,87.68
2022-12-15T02:52:12.600Z,87.68
2022-12-15T02:53:12.605Z,87.79
2022-12-15T02:54:12.546Z,87.89
2022-12-15T02:55:12.532Z,88.00
2022-12-15T02:56:12.504Z,88.00
2022-12-15T02:57:12.513Z,88.10
2022-12-15T02:58:12.463Z,88.21
2022-12-15T02:59:12.526Z,88.21
2022-12-15T03:00:12.476Z,88.53
2022-12-15T03:01:15.493Z,88.53
2022-12-15T03:02:15.647Z,88.21
2022-12-15T03:03:12.449Z,88.43
2022-12-15T03:04:12.446Z,88.53
2022-12-15T03:05:12.395Z,88.43
2022-12-15T03:06:12.364Z,88.64
2022-12-15T03:07:12.385Z,88.53
2022-12-15T03:08:12.364Z,88.75
2022-12-15T03:09:12.344Z,88.85
2022-12-15T03:10:12.336Z,88.64
2022-12-15T03:11:12.294Z,89.06
2022-12-15T03:12:12.301Z,88.85
2022-12-15T03:13:12.273Z,88.75
2022-12-15T03:14:12.286Z,88.75
2022-12-15T03:15:12.265Z,88.53
2022-12-15T03:16:12.289Z,88.64
2022-12-15T03:17:12.228Z,88.43
2022-12-15T03:18:12.248Z,88.32
2022-12-15T03:19:12.245Z,88.43
2022-12-15T03:20:12.215Z,88.10
2022-12-15T03:21:15.174Z,87.79
2022-12-15T03:22:15.199Z,87.43
2022-12-15T03:23:12.135Z,87.21
2022-12-15T03:24:12.299Z,87.00
2022-12-15T03:25:12.135Z,86.90
2022-12-15T03:26:12.095Z,86.68
2022-12-15T03:27:12.095Z,86.47
2022-12-15T03:28:12.088Z,86.57
2022-12-15T03:29:12.057Z,86.57
2022-12-15T03:30:12.081Z,86.47
2022-12-15T03:31:12.044Z,86.68
2022-12-15T03:32:12.080Z,86.47
2022-12-15T03:33:12.040Z,86.47
2022-12-15T03:34:12.027Z,86.47
2022-12-15T03:35:12.078Z,86.79
2022-12-15T03:36:11.976Z,86.57
2022-12-15T03:37:11.980Z,86.57
2022-12-15T03:38:11.973Z,86.72
2022-12-15T03:39:11.946Z,86.90
2022-12-15T03:40:11.983Z,86.72
2022-12-15T03:41:14.894Z,86.82
2022-12-15T03:42:14.908Z,86.93
2022-12-15T03:43:11.878Z,86.93
2022-12-15T03:44:11.862Z,86.93
2022-12-15T03:45:11.867Z,87.04
2022-12-15T03:46:11.992Z,87.04
2022-12-15T03:47:11.826Z,87.25
2022-12-15T03:48:11.837Z,87.46
2022-12-15T03:49:11.816Z,87.36
2022-12-15T03:50:11.797Z,87.25
2022-12-15T03:51:11.834Z,87.25
2022-12-15T03:52:11.779Z,87.57
2022-12-15T03:53:11.762Z,87.25
2022-12-15T03:54:11.748Z,87.36
2022-12-15T03:55:11.749Z,87.36
2022-12-15T03:56:11.715Z,87.04
2022-12-15T03:57:11.756Z,87.21
2022-12-15T03:58:11.715Z,87.15
2022-12-15T03:59:11.675Z,87.04
2022-12-15T04:00:11.677Z,87.15
2022-12-15T04:01:14.687Z,87.15
2022-12-15T04:02:14.918Z,87.25
2022-12-15T04:03:11.823Z,87.36
2022-12-15T04:04:11.637Z,87.46
2022-12-15T04:05:11.588Z,87.57
2022-12-15T04:06:11.607Z,87.79
2022-12-15T04:07:11.567Z,88.00
2022-12-15T04:08:11.588Z,88.00
2022-12-15T04:09:11.585Z,87.68
2022-12-15T04:10:11.558Z,87.36
2022-12-15T04:11:11.508Z,87.15
2022-12-15T04:12:11.499Z,86.82
2022-12-15T04:13:11.510Z,86.82
2022-12-15T04:14:11.458Z,86.68
2022-12-15T04:15:11.479Z,86.57
2022-12-15T04:16:14.788Z,86.36
2022-12-15T04:17:12.477Z,86.57
2022-12-15T04:18:11.466Z,86.47
2022-12-15T04:19:11.402Z,86.15
2022-12-15T04:20:11.397Z,86.47
2022-12-15T04:21:14.411Z,86.15
2022-12-15T04:22:17.971Z,86.68
2022-12-15T04:23:11.419Z,86.51
2022-12-15T04:24:11.341Z,86.61
2022-12-15T04:25:11.339Z,86.61
2022-12-15T04:26:11.313Z,86.72
2022-12-15T04:27:11.297Z,87.36
2022-12-15T04:28:11.301Z,87.25
2022-12-15T04:29:11.321Z,87.25
2022-12-15T04:30:11.247Z,87.04
2022-12-15T04:31:11.313Z,87.36
2022-12-15T04:32:11.242Z,87.04
2022-12-15T04:33:11.225Z,87.04
2022-12-15T04:34:11.357Z,87.04
2022-12-15T04:35:11.208Z,87.15
2022-12-15T04:36:11.189Z,87.25
2022-12-15T04:37:11.189Z,87.36
2022-12-15T04:38:11.177Z,87.25
2022-12-15T04:39:11.236Z,87.25
2022-12-15T04:40:11.184Z,87.25
2022-12-15T04:41:14.125Z,87.36
2022-12-15T04:42:14.109Z,87.46
2022-12-15T04:43:11.123Z,87.79
2022-12-15T04:44:11.112Z,87.68
2022-12-15T04:45:15.505Z,87.89
2022-12-15T04:46:12.088Z,87.57
2022-12-15T04:47:11.059Z,87.68
2022-12-15T04:48:11.031Z,87.79
2022-12-15T04:49:11.035Z,87.93
2022-12-15T04:50:11.008Z,88.04
2022-12-15T04:51:11.050Z,88.36
2022-12-15T04:52:10.990Z,88.25
2022-12-15T04:53:10.979Z,88.15
2022-12-15T04:54:10.960Z,88.57
2022-12-15T04:55:10.979Z,88.36
2022-12-15T04:56:16.521Z,88.25
2022-12-15T04:57:11.911Z,87.72
2022-12-15T04:58:10.919Z,87.40
2022-12-15T04:59:10.930Z,87.04
2022-12-15T05:00:10.896Z,87.15
2022-12-15T05:01:13.981Z,86.61
2022-12-15T05:02:14.038Z,86.51
2022-12-15T05:03:15.124Z,86.40
2022-12-15T05:04:11.882Z,86.29
2022-12-15T05:05:10.816Z,86.08
2022-12-15T05:06:10.809Z,86.08
2022-12-15T05:07:10.968Z,85.97
2022-12-15T05:08:10.761Z,85.97
2022-12-15T05:09:10.820Z,85.76
2022-12-15T05:10:14.913Z,85.50
2022-12-15T05:11:10.721Z,85.19
2022-12-15T05:12:10.734Z,85.19
2022-12-15T05:13:10.748Z,85.08
2022-12-15T05:14:10.681Z,84.87
2022-12-15T05:15:10.702Z,84.76
2022-12-15T05:16:10.767Z,84.66
2022-12-15T05:17:10.702Z,84.66
2022-12-15T05:18:10.699Z,84.55
2022-12-15T05:19:10.652Z,84.12
2022-12-15T05:20:10.632Z,83.91
2022-12-15T05:21:13.611Z,83.80
2022-12-15T05:22:13.618Z,83.80
2022-12-15T05:23:10.601Z,84.12
2022-12-15T05:24:10.604Z,84.23
2022-12-15T05:25:10.572Z,84.23
2022-12-15T05:26:10.550Z,84.33
2022-12-15T05:27:10.532Z,84.12
2022-12-15T05:28:10.513Z,84.23
2022-12-15T05:29:10.552Z,84.44
2022-12-15T05:30:10.509Z,84.66
2022-12-15T05:31:10.519Z,84.76
2022-12-15T05:32:10.466Z,84.44
2022-12-15T05:33:10.452Z,84.33
2022-12-15T05:34:10.423Z,84.44
2022-12-15T05:35:10.452Z,84.44
2022-12-15T05:36:10.428Z,84.33
2022-12-15T05:37:10.412Z,84.44
2022-12-15T05:38:10.402Z,84.44
2022-12-15T05:39:10.382Z,84.44
2022-12-15T05:40:10.455Z,84.44
2022-12-15T05:41:13.363Z,84.33
2022-12-15T05:42:13.372Z,84.33
2022-12-15T05:43:10.342Z,84.33
2022-12-15T05:44:10.301Z,84.23
2022-12-15T05:45:10.384Z,84.23
2022-12-15T05:46:10.333Z,84.12
2022-12-15T05:47:10.313Z,83.98
2022-12-15T05:48:10.276Z,83.65
2022-12-15T05:49:10.252Z,83.76
2022-12-15T05:50:10.235Z,83.02
2022-12-15T05:51:10.210Z,82.59
2022-12-15T05:52:10.223Z,82.38
2022-12-15T05:53:10.210Z,81.95
2022-12-15T05:54:10.184Z,82.06
2022-12-15T05:55:10.174Z,81.70
2022-12-15T05:56:10.173Z,81.38
2022-12-15T05:57:10.170Z,81.27
2022-12-15T05:58:10.115Z,81.06
2022-12-15T05:59:10.102Z,81.06
2022-12-15T06:00:10.095Z,81.06
2022-12-15T06:01:13.132Z,80.85
2022-12-15T06:02:13.175Z,81.06
2022-12-15T06:03:10.183Z,80.85
2022-12-15T06:04:10.117Z,81.06
2022-12-15T06:05:10.096Z,80.85
2022-12-15T06:06:10.005Z,80.85
2022-12-15T06:07:10.005Z,80.74
2022-12-15T06:08:10.042Z,80.71
2022-12-15T06:09:09.994Z,80.60
2022-12-15T06:10:09.963Z,80.49
2022-12-15T06:11:10.012Z,80.60
2022-12-15T06:12:09.953Z,80.60
2022-12-15T06:13:10.005Z,80.60
2022-12-15T06:14:09.946Z,80.71
2022-12-15T06:15:09.987Z,80.92
2022-12-15T06:16:09.985Z,80.81
2022-12-15T06:17:09.917Z,81.02
2022-12-15T06:18:09.896Z,81.06
2022-12-15T06:19:09.913Z,81.27
2022-12-15T06:20:09.842Z,81.06
2022-12-15T06:21:12.844Z,81.27
2022-12-15T06:22:12.813Z,81.27
2022-12-15T06:23:09.806Z,81.17
2022-12-15T06:24:09.955Z,81.06
2022-12-15T06:25:09.794Z,81.06
2022-12-15T06:26:09.765Z,81.06
2022-12-15T06:27:09.793Z,81.27
2022-12-15T06:28:09.755Z,81.27
2022-12-15T06:29:09.714Z,81.70
2022-12-15T06:30:09.735Z,81.27
2022-12-15T06:31:09.784Z,80.96
2022-12-15T06:32:09.704Z,81.60
2022-12-15T06:33:09.680Z,81.27
2022-12-15T06:34:09.668Z,81.17
2022-12-15T06:35:09.732Z,81.27
2022-12-15T06:36:09.644Z,81.38
2022-12-15T06:37:09.608Z,81.27
2022-12-15T06:38:09.607Z,81.60
2022-12-15T06:39:09.591Z,81.38
2022-12-15T06:40:09.607Z,81.60
2022-12-15T06:41:12.615Z,81.17
2022-12-15T06:42:12.736Z,81.02
2022-12-15T06:43:09.555Z,80.60
2022-12-15T06:44:09.555Z,80.39
2022-12-15T06:45:09.573Z,80.39
2022-12-15T06:46:09.592Z,80.18
2022-12-15T06:47:09.564Z,80.39
2022-12-15T06:48:09.505Z,80.07
2022-12-15T06:49:09.467Z,80.18
2022-12-15T06:50:09.485Z,80.18
2022-12-15T06:51:16.430Z,80.49
2022-12-15T06:52:10.466Z,80.18
2022-12-15T06:53:09.417Z,80.18
2022-12-15T06:54:09.405Z,80.60
2022-12-15T06:55:09.376Z,80.92
2022-12-15T06:56:09.386Z,80.49
2022-12-15T06:57:09.377Z,81.02
2022-12-15T06:58:09.329Z,80.92
2022-12-15T06:59:09.326Z,81.13
2022-12-15T07:00:09.317Z,81.13
2022-12-15T07:01:12.317Z,81.13
2022-12-15T07:02:12.539Z,81.13
2022-12-15T07:03:09.402Z,81.13
2022-12-15T07:04:09.399Z,81.13
2022-12-15T07:05:09.295Z,81.02
2022-12-15T07:06:09.255Z,81.24
2022-12-15T07:07:09.283Z,81.02
2022-12-15T07:08:09.188Z,80.81
2022-12-15T07:09:09.197Z,80.71
2022-12-15T07:10:09.208Z,80.60
2022-12-15T07:11:09.171Z,80.81
2022-12-15T07:12:09.157Z,80.92
2022-12-15T07:13:09.169Z,81.02
2022-12-15T07:14:09.118Z,80.81
2022-12-15T07:15:09.177Z,81.02
2022-12-15T07:16:09.147Z,80.60
2022-12-15T07:17:09.097Z,80.81
2022-12-15T07:18:09.056Z,80.49
2022-12-15T07:19:09.076Z,80.71
2022-12-15T07:20:09.049Z,80.18
2022-12-15T07:21:12.124Z,80.18
2022-12-15T07:22:12.032Z,80.28
2022-12-15T07:23:09.028Z,80.18
2022-12-15T07:24:09.291Z,80.07
2022-12-15T07:25:08.988Z,80.24
2022-12-15T07:26:11.598Z,79.93
2022-12-15T07:27:08.992Z,79.82
2022-12-15T07:28:08.938Z,79.61
2022-12-15T07:29:08.963Z,79.50
2022-12-15T07:30:08.918Z,79.39
2022-12-15T07:31:08.960Z,79.71
2022-12-15T07:32:08.960Z,79.71
2022-12-15T07:33:08.888Z,79.68
2022-12-15T07:34:08.871Z,79.68
2022-12-15T07:35:08.868Z,79.89
2022-12-15T07:36:08.834Z,79.89
2022-12-15T07:37:08.848Z,79.57
2022-12-15T07:38:08.889Z,79.68
2022-12-15T07:39:08.837Z,79.68
2022-12-15T07:40:08.799Z,79.89
2022-12-15T07:41:11.788Z,79.89
2022-12-15T07:42:11.783Z,80.10
2022-12-15T07:43:08.929Z,80.53
2022-12-15T07:44:08.741Z,80.21
2022-12-15T07:45:08.749Z,79.57
2022-12-15T07:46:08.807Z,78.90
2022-12-15T07:47:08.711Z,78.47
2022-12-15T07:48:08.719Z,78.36
2022-12-15T07:49:08.712Z,78.22
2022-12-15T07:50:08.665Z,78.12
2022-12-15T07:51:13.853Z,78.12
2022-12-15T07:52:09.629Z,77.76
2022-12-15T07:53:08.622Z,77.45
2022-12-15T07:54:08.636Z,77.55
2022-12-15T07:55:08.670Z,77.31
2022-12-15T07:56:09.812Z,77.09
2022-12-15T07:57:08.625Z,76.98
2022-12-15T07:58:08.570Z,76.88
2022-12-15T07:59:08.540Z,76.74
2022-12-15T08:00:08.535Z,76.74
2022-12-15T08:01:11.682Z,76.95
2022-12-15T08:02:11.757Z,77.06
2022-12-15T08:03:08.653Z,76.81
2022-12-15T08:04:08.532Z,76.60
2022-12-15T08:05:08.529Z,76.81
2022-12-15T08:06:08.481Z,76.70
2022-12-15T08:07:08.495Z,76.60
2022-12-15T08:08:12.288Z,76.88
2022-12-15T08:09:09.469Z,76.88
2022-12-15T08:10:08.420Z,76.67
2022-12-15T08:11:08.435Z,77.09
2022-12-15T08:12:08.401Z,76.99
2022-12-15T08:13:08.411Z,77.27
2022-12-15T08:14:13.493Z,76.74
2022-12-15T08:15:09.481Z,76.85
2022-12-15T08:16:08.385Z,76.85
2022-12-15T08:17:08.345Z,76.95
2022-12-15T08:18:08.369Z,77.27
2022-12-15T08:19:08.297Z,76.95
2022-12-15T08:20:10.237Z,76.64
2022-12-15T08:21:11.296Z,76.39
2022-12-15T08:22:11.312Z,76.39
2022-12-15T08:23:08.282Z,76.50
2022-12-15T08:24:08.251Z,76.81
2022-12-15T08:25:08.252Z,76.60
2022-12-15T08:26:08.255Z,76.57
2022-12-15T08:27:08.282Z,75.82
2022-12-15T08:28:08.183Z,75.93
2022-12-15T08:30:09.210Z,75.62
2022-12-15T08:31:08.162Z,75.79
2022-12-15T08:32:08.278Z,75.26
2022-12-15T08:33:08.182Z,75.37
2022-12-15T08:34:08.123Z,75.37
2022-12-15T08:35:20.067Z,75.12
2022-12-15T08:36:09.124Z,75.02
2022-12-15T08:37:08.130Z,75.40
2022-12-15T08:38:08.085Z,75.09
2022-12-15T08:39:08.114Z,74.98
2022-12-15T08:40:08.043Z,75.40
2022-12-15T08:41:11.075Z,74.88
2022-12-15T08:42:11.025Z,75.30
2022-12-15T08:43:08.065Z,74.74
2022-12-15T08:44:08.024Z,75.16
2022-12-15T08:45:07.975Z,74.63
2022-12-15T08:46:07.999Z,74.42
2022-12-15T08:47:07.982Z,74.00
2022-12-15T08:48:07.969Z,73.86
2022-12-15T08:49:07.936Z,73.86
2022-12-15T08:50:07.944Z,73.54
2022-12-15T08:51:07.919Z,73.30
2022-12-15T08:52:07.917Z,73.40
2022-12-15T08:53:30.352Z,73.51
2022-12-15T08:54:08.867Z,73.58
2022-12-15T08:55:07.891Z,74.01
2022-12-15T08:56:07.967Z,73.79
2022-12-15T08:57:07.955Z,73.47
2022-12-15T08:58:07.905Z,73.16
2022-12-15T08:59:07.875Z,73.05
2022-12-15T09:00:07.866Z,73.23
2022-12-15T09:01:10.942Z,73.33
2022-12-15T09:02:22.471Z,73.02
2022-12-15T09:03:13.778Z,73.13
2022-12-15T09:04:08.299Z,73.65
2022-12-15T09:05:07.873Z,73.13
2022-12-15T09:06:08.100Z,73.65
2022-12-15T09:07:10.061Z,73.55
2022-12-15T09:08:07.869Z,73.09
2022-12-15T09:09:07.881Z,73.20
2022-12-15T09:10:07.727Z,74.15
2022-12-15T09:11:07.744Z,73.30
2022-12-15T09:12:07.792Z,73.83
2022-12-15T09:13:07.699Z,72.88
2022-12-15T09:14:07.762Z,73.09
2022-12-15T09:15:07.702Z,73.20
2022-12-15T09:16:09.873Z,73.41
2022-12-15T09:17:07.728Z,73.41
2022-12-15T09:18:07.609Z,73.41
2022-12-15T09:19:07.601Z,73.52
2022-12-15T09:20:07.548Z,73.41
2022-12-15T09:21:10.505Z,73.72
2022-12-15T09:22:10.543Z,73.06
2022-12-15T09:23:07.448Z,73.27
2022-12-15T09:24:07.497Z,73.38
2022-12-15T09:25:07.525Z,73.58
2022-12-15T09:26:15.043Z,73.72
2022-12-15T09:27:07.358Z,73.06
2022-12-15T09:28:07.346Z,72.96
2022-12-15T09:29:07.335Z,73.06
2022-12-15T09:30:07.327Z,72.85
2022-12-15T09:31:07.411Z,72.74
2022-12-15T09:32:13.633Z,73.06
2022-12-15T09:33:08.284Z,72.32
2022-12-15T09:34:07.270Z,72.53
2022-12-15T09:35:07.257Z,72.00
2022-12-15T09:36:07.246Z,72.64
2022-12-15T09:37:07.256Z,72.00
2022-12-15T09:38:07.220Z,72.00
2022-12-15T09:39:07.198Z,71.87
2022-12-15T09:40:07.190Z,71.97
2022-12-15T09:41:10.174Z,71.34
2022-12-15T09:42:10.341Z,71.13
2022-12-15T09:43:33.363Z,70.92
2022-12-15T09:44:08.148Z,70.92
2022-12-15T09:45:07.119Z,70.71
2022-12-15T09:46:07.149Z,70.67
2022-12-15T09:47:07.117Z,70.89
2022-12-15T09:48:07.112Z,70.89
2022-12-15T09:49:07.097Z,70.15
2022-12-15T09:50:07.061Z,70.47
2022-12-15T09:51:07.046Z,70.25
2022-12-15T09:52:11.043Z,70.25
2022-12-15T09:53:23.152Z,70.25
2022-12-15T09:54:08.049Z,70.12
2022-12-15T09:55:07.068Z,70.22
2022-12-15T09:56:06.990Z,70.04
2022-12-15T09:57:06.969Z,70.04
2022-12-15T09:58:10.939Z,70.15
2022-12-15T09:59:06.939Z,70.04
2022-12-15T10:00:06.942Z,69.73
2022-12-15T10:01:09.931Z,70.01
2022-12-15T10:02:10.037Z,69.91
2022-12-15T10:03:07.081Z,69.80
2022-12-15T10:04:06.946Z,69.49
2022-12-15T10:05:06.880Z,69.59
2022-12-15T10:06:24.880Z,69.59
2022-12-15T10:07:07.840Z,69.45
2022-12-15T10:08:06.829Z,69.67
2022-12-15T10:09:06.815Z,69.56
2022-12-15T10:10:06.828Z,69.14
2022-12-15T10:11:06.794Z,68.93
2022-12-15T10:12:06.781Z,69.03
2022-12-15T10:13:06.761Z,69.03
2022-12-15T10:14:06.754Z,69.56
2022-12-15T10:15:06.763Z,68.93
2022-12-15T10:16:06.757Z,68.48
2022-12-15T10:17:06.713Z,68.69
2022-12-15T10:18:06.697Z,68.58
2022-12-15T10:19:06.686Z,68.48
2022-12-15T10:20:06.740Z,68.48
2022-12-15T10:21:09.652Z,68.27
2022-12-15T10:22:09.656Z,68.27
2022-12-15T10:23:06.736Z,68.05
2022-12-15T10:24:06.667Z,67.95
2022-12-15T10:25:11.039Z,68.16
2022-12-15T10:26:07.644Z,67.74
2022-12-15T10:27:06.585Z,67.60
2022-12-15T10:28:06.566Z,67.71
2022-12-15T10:29:06.557Z,67.82
2022-12-15T10:30:06.596Z,67.82
2022-12-15T10:31:06.579Z,68.24
2022-12-15T10:32:06.542Z,68.02
2022-12-15T10:33:06.493Z,67.53
2022-12-15T10:34:06.483Z,67.63
2022-12-15T10:35:06.535Z,67.85
2022-12-15T10:36:06.462Z,67.85
2022-12-15T10:37:06.484Z,67.43
2022-12-15T10:38:06.434Z,66.97
2022-12-15T10:39:06.456Z,67.29
2022-12-15T10:40:06.407Z,66.76
2022-12-15T10:41:09.385Z,66.87
2022-12-15T10:42:09.427Z,66.87
2022-12-15T10:43:06.364Z,66.87
2022-12-15T10:44:06.355Z,66.87
2022-12-15T10:45:06.366Z,66.55
2022-12-15T10:46:06.489Z,66.03
2022-12-15T10:47:06.320Z,65.78
2022-12-15T10:48:06.312Z,66.10
2022-12-15T10:49:06.286Z,65.89
2022-12-15T10:50:06.275Z,66.00
2022-12-15T10:51:06.259Z,66.42
2022-12-15T10:52:06.275Z,66.20
2022-12-15T10:53:06.262Z,66.00
2022-12-15T10:54:06.228Z,66.20
2022-12-15T10:55:06.207Z,65.37
2022-12-15T10:56:06.199Z,65.78
2022-12-15T10:57:06.187Z,65.68
2022-12-15T10:58:06.200Z,65.02
2022-12-15T10:59:06.149Z,65.65
2022-12-15T11:00:06.137Z,65.34
2022-12-15T11:01:09.280Z,65.34
2022-12-15T11:02:09.272Z,65.73
2022-12-15T11:03:06.280Z,65.41
2022-12-15T11:04:06.271Z,65.41
2022-12-15T11:05:06.077Z,64.99
2022-12-15T11:06:06.070Z,65.20
2022-12-15T11:07:06.055Z,65.83
2022-12-15T11:08:10.685Z,65.20
2022-12-15T11:09:07.020Z,64.75
2022-12-15T11:10:06.007Z,64.86
2022-12-15T11:11:07.833Z,64.96
2022-12-15T11:12:06.026Z,64.12
2022-12-15T11:13:05.972Z,64.20
2022-12-15T11:14:05.968Z,64.62
2022-12-15T11:15:05.942Z,63.57
2022-12-15T11:16:05.928Z,64.17
2022-12-15T11:17:05.941Z,64.17
2022-12-15T11:18:05.917Z,63.75
2022-12-15T11:19:05.979Z,63.65
2022-12-15T11:20:05.924Z,63.54
2022-12-15T11:21:08.900Z,63.43
2022-12-15T11:22:08.870Z,63.65
2022-12-15T11:23:05.882Z,64.28
2022-12-15T11:24:05.899Z,63.33
2022-12-15T11:25:05.812Z,63.30
2022-12-15T11:26:07.265Z,63.72
2022-12-15T11:27:05.790Z,63.62
2022-12-15T11:28:05.780Z,63.72
2022-12-15T11:29:05.764Z,64.35
2022-12-15T11:30:05.758Z,63.82
2022-12-15T11:31:05.739Z,63.59
2022-12-15T11:32:07.506Z,63.69
2022-12-15T11:33:05.712Z,63.59
2022-12-15T11:34:05.702Z,62.85
2022-12-15T11:35:05.683Z,62.93
2022-12-15T11:36:05.694Z,63.04
2022-12-15T11:37:05.673Z,63.87
2022-12-15T11:38:05.673Z,63.67
2022-12-15T11:39:05.676Z,62.80
2022-12-15T11:40:05.623Z,62.59
2022-12-15T11:41:08.608Z,62.98
2022-12-15T11:42:08.674Z,63.71
2022-12-15T11:43:05.580Z,63.81
2022-12-15T11:44:06.650Z,64.03
2022-12-15T11:45:05.552Z,64.03
2022-12-15T11:46:05.543Z,64.54
2022-12-15T11:47:05.522Z,64.34
2022-12-15T11:48:05.542Z,64.23
2022-12-15T11:49:05.556Z,64.65
2022-12-15T11:50:05.496Z,64.23
2022-12-15T11:51:05.482Z,65.07
2022-12-15T11:52:05.469Z,64.65
2022-12-15T11:53:05.484Z,64.76
2022-12-15T11:54:05.434Z,65.07
2022-12-15T11:55:05.433Z,64.86
2022-12-15T11:56:05.412Z,64.44
2022-12-15T11:57:05.393Z,64.86
2022-12-15T11:58:05.383Z,64.44
2022-12-15T11:59:05.393Z,64.03
2022-12-15T12:00:05.364Z,64.41
2022-12-15T12:01:08.342Z,64.31
2022-12-15T12:02:08.412Z,64.20
2022-12-15T12:03:05.396Z,63.86
2022-12-15T12:04:05.334Z,64.39
2022-12-15T12:05:05.283Z,64.90
2022-12-15T12:06:05.280Z,64.14
2022-12-15T12:07:05.265Z,64.90
2022-12-15T12:08:05.253Z,65.01
2022-12-15T12:09:05.282Z,64.87
2022-12-15T12:10:05.258Z,64.98
2022-12-15T12:11:05.267Z,64.77
2022-12-15T12:12:05.198Z,64.56
2022-12-15T12:13:05.182Z,64.98
2022-12-15T12:14:09.671Z,65.61
2022-12-15T12:15:06.196Z,65.19
2022-12-15T12:16:05.135Z,65.61
2022-12-15T12:17:05.248Z,65.40
2022-12-15T12:18:05.124Z,65.09
2022-12-15T12:19:05.150Z,64.87
2022-12-15T12:20:11.050Z,64.98
2022-12-15T12:21:09.130Z,64.87
2022-12-15T12:22:08.086Z,64.14
2022-12-15T12:23:05.121Z,64.04
2022-12-15T12:24:05.034Z,64.04
2022-12-15T12:25:05.264Z,63.83
2022-12-15T12:26:05.047Z,63.42
2022-12-15T12:27:05.091Z,63.93
2022-12-15T12:28:05.048Z,63.31
2022-12-15T12:29:05.029Z,63.10
2022-12-15T12:30:04.996Z,63.42
2022-12-15T12:31:04.969Z,63.52
2022-12-15T12:32:05.454Z,63.20
2022-12-15T12:33:04.919Z,62.79
2022-12-15T12:34:05.001Z,62.48
2022-12-15T12:35:30.655Z,62.65
2022-12-15T12:36:05.889Z,62.45
2022-12-15T12:37:04.890Z,62.55
2022-12-15T12:38:05.164Z,62.65
2022-12-15T12:39:04.900Z,62.55
2022-12-15T12:40:04.829Z,62.96
2022-12-15T12:41:07.836Z,62.96
2022-12-15T12:42:07.890Z,62.55
2022-12-15T12:43:07.361Z,62.76
2022-12-15T12:44:05.760Z,63.04
2022-12-15T12:45:04.751Z,63.25
2022-12-15T12:46:04.764Z,63.56
2022-12-15T12:47:04.727Z,63.56
2022-12-15T12:48:04.719Z,63.56
2022-12-15T12:49:04.701Z,64.09
2022-12-15T12:50:04.679Z,63.46
2022-12-15T12:51:04.718Z,63.46
2022-12-15T12:52:04.650Z,63.98
2022-12-15T12:53:04.647Z,63.56